createdAt,value
2018-03-16T00:00:04.072Z,100541.02
2018-03-16T00:02:32.572Z,100548.09
2018-03-16T00:05:01.181Z,100548.59
2018-03-16T00:07:29.561Z,100542.25
2018-03-16T00:09:58.333Z,100534.86
2018-03-16T00:12:26.621Z,100530.59
2018-03-16T00:14:55.195Z,100547.43
2018-03-16T00:17:23.467Z,100544.17
2018-03-16T00:19:51.732Z,100537.98
2018-03-16T00:25:21.596Z,100535.20
2018-03-16T00:27:49.900Z,100522.63
2018-03-16T00:30:18.410Z,100534.60
2018-03-16T00:32:47.488Z,100539.80
2018-03-16T00:35:15.880Z,100535.83
2018-03-16T00:37:44.923Z,100535.75
2018-03-16T00:40:13.208Z,100534.56
2018-03-16T00:42:41.497Z,100539.72
2018-03-16T00:45:09.768Z,100540.95
2018-03-16T00:47:38.141Z,100549.25
2018-03-16T00:50:06.418Z,100549.98
2018-03-16T00:52:34.681Z,100553.41
2018-03-16T00:55:02.995Z,100548.79
2018-03-16T00:57:32.029Z,100539.91
2018-03-16T01:00:00.304Z,100539.61
2018-03-16T01:02:28.600Z,100547.10
2018-03-16T01:04:56.864Z,100542.98
2018-03-16T01:07:25.139Z,100546.17
2018-03-16T01:09:53.519Z,100535.72
2018-03-16T01:12:22.543Z,100554.37
2018-03-16T01:14:52.078Z,100555.06
2018-03-16T01:17:21.143Z,100563.70
2018-03-16T01:19:49.423Z,100548.52
2018-03-16T01:22:17.715Z,100557.21
2018-03-16T01:24:46.599Z,100547.91
2018-03-16T01:27:14.868Z,100558.90
2018-03-16T01:29:43.209Z,100550.17
2018-03-16T01:32:12.332Z,100559.39
2018-03-16T01:34:40.609Z,100556.81
2018-03-16T01:37:08.912Z,100549.52
2018-03-16T01:39:37.809Z,100556.94
2018-03-16T01:42:06.060Z,100547.06
2018-03-16T01:44:34.353Z,100552.09
2018-03-16T01:47:02.645Z,100564.28
2018-03-16T01:49:30.942Z,100568.82
2018-03-16T01:51:59.459Z,100568.17
2018-03-16T01:54:28.271Z,100560.83
2018-03-16T01:56:56.971Z,100559.86
2018-03-16T01:59:25.255Z,100548.14
2018-03-16T02:01:53.553Z,100562.33
2018-03-16T02:04:21.938Z,100564.24
2018-03-16T02:06:50.207Z,100556.47
2018-03-16T02:09:18.523Z,100558.35
2018-03-16T02:11:47.715Z,100553.20
2018-03-16T02:14:16.760Z,100552.70
2018-03-16T02:16:45.121Z,100563.27
2018-03-16T02:19:14.820Z,100556.80
2018-03-16T02:21:43.092Z,100565.77
2018-03-16T02:24:11.372Z,100577.06
2018-03-16T02:26:40.387Z,100545.42
2018-03-16T02:29:09.312Z,100573.98
2018-03-16T02:31:37.581Z,100571.78
2018-03-16T02:34:05.901Z,100558.50
2018-03-16T02:36:35.456Z,100555.31
2018-03-16T02:39:03.755Z,100568.52
2018-03-16T02:41:32.068Z,100572.10
2018-03-16T02:44:01.999Z,100573.83
2018-03-16T02:46:31.111Z,100569.89
2018-03-16T02:48:59.393Z,100580.75
2018-03-16T02:51:27.678Z,100562.87
2018-03-16T02:53:55.980Z,100578.09
2018-03-16T02:56:24.243Z,100588.30
2018-03-16T02:58:53.126Z,100581.86
2018-03-16T03:01:21.418Z,100577.86
2018-03-16T03:03:49.696Z,100573.61
2018-03-16T03:06:18.561Z,100560.50
2018-03-16T03:08:46.835Z,100565.84
2018-03-16T03:11:15.378Z,100567.59
2018-03-16T03:13:43.656Z,100573.35
2018-03-16T03:16:12.959Z,100570.44
2018-03-16T03:18:41.244Z,100567.86
2018-03-16T03:21:10.317Z,100579.16
2018-03-16T03:23:38.672Z,100568.48
2018-03-16T03:26:06.940Z,100571.50
2018-03-16T03:28:35.233Z,100568.36
2018-03-16T03:31:03.913Z,100562.56
2018-03-16T03:33:32.193Z,100572.01
2018-03-16T03:36:00.655Z,100569.85
2018-03-16T03:38:28.912Z,100567.47
2018-03-16T03:40:57.176Z,100578.14
2018-03-16T03:43:26.321Z,100572.30
2018-03-16T03:45:54.851Z,100575.27
2018-03-16T03:48:23.922Z,100576.80
2018-03-16T03:50:52.204Z,100575.61
2018-03-16T03:53:20.516Z,100572.60
2018-03-16T03:55:49.563Z,100564.12
2018-03-16T03:58:17.844Z,100582.35
2018-03-16T04:00:46.152Z,100573.20
2018-03-16T04:03:15.728Z,100573.28
2018-03-16T04:05:44.000Z,100578.70
2018-03-16T04:08:12.364Z,100581.16
2018-03-16T04:10:40.638Z,100582.22
2018-03-16T04:13:08.896Z,100578.11
2018-03-16T04:15:37.388Z,100594.55
2018-03-16T04:18:06.939Z,100579.97
2018-03-16T04:20:35.215Z,100597.00
2018-03-16T04:23:03.561Z,100585.91
2018-03-16T04:25:32.564Z,100591.45
2018-03-16T04:28:02.163Z,100572.34
2018-03-16T04:30:30.990Z,100588.31
2018-03-16T04:32:59.280Z,100594.25
2018-03-16T04:35:27.560Z,100593.83
2018-03-16T04:37:56.228Z,100607.50
2018-03-16T04:40:24.571Z,100606.14
2018-03-16T04:42:52.840Z,100596.36
2018-03-16T04:45:21.131Z,100595.43
2018-03-16T04:47:49.513Z,100584.55
2018-03-16T04:50:17.796Z,100605.60
2018-03-16T04:52:46.082Z,100607.13
2018-03-16T04:55:15.087Z,100598.53
2018-03-16T04:57:44.041Z,100610.73
2018-03-16T05:00:13.167Z,100609.41
2018-03-16T05:02:41.441Z,100614.91
2018-03-16T05:05:09.709Z,100601.83
2018-03-16T05:07:38.009Z,100620.23
2018-03-16T05:10:06.288Z,100612.20
2018-03-16T05:12:35.278Z,100625.77
2018-03-16T05:15:03.580Z,100628.44
2018-03-16T05:17:31.888Z,100608.47
2018-03-16T05:20:00.170Z,100632.31
2018-03-16T05:22:28.584Z,100613.86
2018-03-16T05:24:56.945Z,100625.88
2018-03-16T05:27:25.215Z,100628.72
2018-03-16T05:29:53.717Z,100614.06
2018-03-16T05:32:21.984Z,100622.20
2018-03-16T05:34:50.259Z,100637.35
2018-03-16T05:39:47.467Z,100642.78
2018-03-16T05:42:16.360Z,100652.19
2018-03-16T05:44:44.812Z,100656.38
2018-03-16T05:47:13.088Z,100646.15
2018-03-16T05:49:41.375Z,100665.78
2018-03-16T05:52:09.753Z,100662.64
2018-03-16T05:54:38.600Z,100668.84
2018-03-16T05:57:07.756Z,100646.68
2018-03-16T05:59:36.025Z,100651.02
2018-03-16T06:02:04.294Z,100669.47
2018-03-16T06:04:33.692Z,100670.78
2018-03-16T06:07:02.717Z,100670.36
2018-03-16T06:09:31.428Z,100667.56
2018-03-16T06:11:59.729Z,100682.17
2018-03-16T06:14:28.750Z,100674.52
2018-03-16T06:16:57.025Z,100675.87
2018-03-16T06:19:26.641Z,100672.19
2018-03-16T06:21:54.908Z,100674.37
2018-03-16T06:24:24.537Z,100681.48
2018-03-16T06:26:52.987Z,100683.48
2018-03-16T06:29:21.998Z,100687.30
2018-03-16T06:31:50.929Z,100674.83
2018-03-16T06:34:19.348Z,100684.92
2018-03-16T06:36:48.491Z,100689.52
2018-03-16T06:39:17.085Z,100670.52
2018-03-16T06:41:45.383Z,100693.03
2018-03-16T06:44:13.661Z,100702.89
2018-03-16T06:46:42.714Z,100697.24
2018-03-16T06:49:11.408Z,100703.09
2018-03-16T06:51:39.679Z,100682.88
2018-03-16T06:54:07.981Z,100702.75
2018-03-16T06:56:36.750Z,100701.11
2018-03-16T06:59:05.040Z,100715.27
2018-03-16T07:01:33.317Z,100709.48
2018-03-16T07:04:02.001Z,100715.81
2018-03-16T07:06:30.281Z,100721.72
2018-03-16T07:08:58.968Z,100726.17
2018-03-16T07:11:28.887Z,100724.86
2018-03-16T07:13:57.150Z,100737.03
2018-03-16T07:16:25.484Z,100751.45
2018-03-16T07:18:54.635Z,100736.00
2018-03-16T07:21:22.910Z,100735.23
2018-03-16T07:23:51.887Z,100746.09
2018-03-16T07:26:20.158Z,100751.72
2018-03-16T07:28:48.433Z,100745.23
2018-03-16T07:31:16.724Z,100756.23
2018-03-16T07:33:45.534Z,100762.05
2018-03-16T07:36:13.813Z,100760.11
2018-03-16T07:38:42.108Z,100768.73
2018-03-16T07:41:10.780Z,100755.84
2018-03-16T07:43:39.041Z,100763.30
2018-03-16T07:46:21.827Z,100767.55
2018-03-16T07:48:50.119Z,100782.14
2018-03-16T07:51:18.385Z,100777.08
2018-03-16T07:53:46.800Z,100772.08
2018-03-16T07:56:15.068Z,100777.50
2018-03-16T07:58:43.912Z,100781.66
2018-03-16T08:01:13.068Z,100778.77
2018-03-16T08:03:41.456Z,100777.78
2018-03-16T08:06:09.717Z,100768.15
2018-03-16T08:08:38.021Z,100785.69
2018-03-16T08:11:06.858Z,100790.58
2018-03-16T08:13:35.143Z,100776.96
2018-03-16T08:16:03.470Z,100785.56
2018-03-16T08:18:32.322Z,100792.41
2018-03-16T08:21:00.675Z,100779.09
2018-03-16T08:23:30.121Z,100762.61
2018-03-16T08:25:58.615Z,100786.84
2018-03-16T08:28:26.888Z,100783.06
2018-03-16T08:30:55.576Z,100786.75
2018-03-16T08:33:23.945Z,100775.44
2018-03-16T08:35:52.224Z,100791.92
2018-03-16T08:38:20.505Z,100795.34
2018-03-16T08:40:48.779Z,100797.05
2018-03-16T08:43:17.102Z,100787.52
2018-03-16T08:45:46.251Z,100791.91
2018-03-16T08:48:14.624Z,100802.95
2018-03-16T08:50:42.908Z,100795.39
2018-03-16T08:53:11.341Z,100802.78
2018-03-16T08:55:40.388Z,100804.36
2018-03-16T08:58:08.857Z,100806.41
2018-03-16T09:00:38.486Z,100805.55
2018-03-16T09:03:06.761Z,100814.73
2018-03-16T09:05:35.037Z,100797.27
2018-03-16T09:08:03.306Z,100831.47
2018-03-16T09:10:31.598Z,100816.62
2018-03-16T09:12:59.973Z,100827.86
2018-03-16T09:15:28.950Z,100828.25
2018-03-16T09:17:57.245Z,100812.98
2018-03-16T09:20:25.628Z,100831.30
2018-03-16T09:22:53.915Z,100818.16
2018-03-16T09:25:22.898Z,100829.05
2018-03-16T09:27:52.633Z,100824.69
2018-03-16T09:30:20.975Z,100830.50
2018-03-16T09:32:49.233Z,100833.05
2018-03-16T09:35:17.506Z,100817.80
2018-03-16T09:37:45.801Z,100818.10
2018-03-16T09:40:14.184Z,100826.77
2018-03-16T09:42:42.729Z,100831.42
2018-03-16T09:45:11.872Z,100824.13
2018-03-16T09:47:40.752Z,100826.90
2018-03-16T09:50:09.572Z,100823.20
2018-03-16T09:52:38.309Z,100837.98
2018-03-16T09:55:25.169Z,100836.82
2018-03-16T09:57:54.576Z,100832.83
2018-03-16T10:00:23.176Z,100829.14
2018-03-16T10:02:52.248Z,100832.75
2018-03-16T10:05:21.813Z,100831.83
2018-03-16T10:07:50.869Z,100844.95
2018-03-16T10:10:19.658Z,100842.81
2018-03-16T10:12:47.928Z,100844.60
2018-03-16T10:15:16.246Z,100839.22
2018-03-16T10:17:46.155Z,100852.24
2018-03-16T10:20:14.609Z,100849.31
2018-03-16T10:22:42.929Z,100861.16
2018-03-16T10:25:11.984Z,100859.75
2018-03-16T10:27:40.829Z,100866.19
2018-03-16T10:30:09.146Z,100864.09
2018-03-16T10:32:37.457Z,100859.88
2018-03-16T10:35:05.840Z,100860.59
2018-03-16T10:37:34.909Z,100875.19
2018-03-16T10:40:03.206Z,100870.79
2018-03-16T10:42:32.100Z,100883.78
2018-03-16T10:45:00.392Z,100884.04
2018-03-16T10:47:29.573Z,100890.20
2018-03-16T10:49:57.873Z,100895.89
2018-03-16T10:52:27.827Z,100903.75
2018-03-16T10:54:56.095Z,100901.63
2018-03-16T10:57:25.073Z,100905.15
2018-03-16T10:59:53.596Z,100905.94
2018-03-16T11:02:23.083Z,100915.58
2018-03-16T11:04:56.868Z,100907.21
2018-03-16T11:10:31.942Z,100915.55
2018-03-16T11:13:00.629Z,100903.06
2018-03-16T11:15:29.293Z,100922.32
2018-03-16T11:17:59.792Z,100925.52
2018-03-16T11:20:28.153Z,100912.88
2018-03-16T11:22:56.445Z,100919.94
2018-03-16T11:25:25.340Z,100919.01
2018-03-16T11:27:54.388Z,100920.59
2018-03-16T11:30:23.759Z,100922.24
2018-03-16T11:32:53.049Z,100915.66
2018-03-16T11:35:21.380Z,100924.15
2018-03-16T11:37:49.760Z,100932.19
2018-03-16T11:40:18.056Z,100934.94
2018-03-16T11:42:46.540Z,100932.05
2018-03-16T11:45:15.220Z,100935.92
2018-03-16T11:47:43.476Z,100922.28
2018-03-16T11:50:11.787Z,100920.17
2018-03-16T11:52:40.673Z,100927.38
2018-03-16T11:55:08.936Z,100913.25
2018-03-16T11:57:37.221Z,100930.64
2018-03-16T12:00:05.782Z,100930.22
2018-03-16T12:02:34.036Z,100935.50
2018-03-16T12:05:03.122Z,100932.73
2018-03-16T12:07:31.451Z,100950.40
2018-03-16T12:10:00.283Z,100914.81
2018-03-16T12:12:28.543Z,100921.86
2018-03-16T12:14:57.608Z,100932.20
2018-03-16T12:17:25.929Z,100921.38
2018-03-16T12:19:54.206Z,100949.39
2018-03-16T12:22:22.538Z,100932.97
2018-03-16T12:24:53.875Z,100934.50
2018-03-16T12:27:22.128Z,100941.94
2018-03-16T12:29:52.129Z,100937.50
2018-03-16T12:32:20.992Z,100923.34
2018-03-16T12:34:49.623Z,100933.77
2018-03-16T12:37:18.671Z,100948.35
2018-03-16T12:39:46.933Z,100921.91
2018-03-16T12:42:17.008Z,100935.08
2018-03-16T12:44:45.288Z,100947.30
2018-03-16T12:47:15.324Z,100959.02
2018-03-16T12:49:45.369Z,100950.02
2018-03-16T12:52:14.028Z,100947.84
2018-03-16T12:54:43.167Z,100951.76
2018-03-16T12:57:11.431Z,100948.62
2018-03-16T12:59:39.703Z,100942.00
2018-03-16T13:02:08.010Z,100962.29
2018-03-16T13:04:36.284Z,100947.06
2018-03-16T13:07:04.557Z,100948.94
2018-03-16T13:09:32.882Z,100969.73
2018-03-16T13:12:01.143Z,100963.70
2018-03-16T13:14:29.404Z,100966.73
2018-03-16T13:16:57.780Z,100959.17
2018-03-16T13:19:26.071Z,100965.89
2018-03-16T13:21:54.363Z,100952.72
2018-03-16T13:24:22.717Z,100953.28
2018-03-16T13:26:50.999Z,100969.97
2018-03-16T13:29:19.327Z,100972.77
2018-03-16T13:31:48.346Z,100975.25
2018-03-16T13:34:17.538Z,100961.30
2018-03-16T13:36:45.853Z,100967.30
2018-03-16T13:39:14.462Z,100964.45
2018-03-16T13:41:42.745Z,100970.78
2018-03-16T13:44:11.793Z,100970.27
2018-03-16T13:46:40.097Z,100979.53
2018-03-16T13:49:08.761Z,100971.38
2018-03-16T13:51:37.049Z,100977.79
2018-03-16T13:54:05.424Z,100973.63
2018-03-16T13:56:34.312Z,100967.44
2018-03-16T13:59:02.634Z,100976.69
2018-03-16T14:01:32.209Z,100961.23
2018-03-16T14:04:00.480Z,100965.69
2018-03-16T14:06:28.869Z,100973.97
2018-03-16T14:08:57.171Z,100965.38
2018-03-16T14:11:25.436Z,100946.73
2018-03-16T14:13:53.784Z,100957.66
2018-03-16T14:16:22.066Z,100984.59
2018-03-16T14:18:50.537Z,100959.83
2018-03-16T14:21:19.147Z,100978.86
2018-03-16T14:23:47.412Z,100969.80
2018-03-16T14:26:16.720Z,100977.20
2018-03-16T14:28:45.009Z,100971.00
2018-03-16T14:31:13.772Z,100993.61
2018-03-16T14:33:42.161Z,100974.92
2018-03-16T14:36:10.555Z,101010.06
2018-03-16T14:38:39.690Z,100986.97
2018-03-16T14:41:08.933Z,100982.87
2018-03-16T14:43:37.212Z,100989.89
2018-03-16T14:46:05.502Z,100999.87
2018-03-16T14:48:33.861Z,101000.69
2018-03-16T14:51:02.128Z,101009.65
2018-03-16T14:53:30.392Z,101002.24
2018-03-16T14:55:58.832Z,101002.39
2018-03-16T14:58:27.109Z,101012.27
2018-03-16T15:00:55.443Z,101000.51
2018-03-16T15:03:23.853Z,101000.00
2018-03-16T15:05:52.108Z,101011.55
2018-03-16T15:08:20.405Z,101022.87
2018-03-16T15:10:48.693Z,101011.22
2018-03-16T15:13:17.686Z,101022.10
2018-03-16T15:15:45.966Z,101020.48
2018-03-16T15:18:14.479Z,101037.55
2018-03-16T15:20:42.668Z,101037.78
2018-03-16T15:23:11.761Z,101047.61
2018-03-16T15:25:40.900Z,101016.63
2018-03-16T15:28:09.841Z,101046.11
2018-03-16T15:30:38.930Z,101034.89
2018-03-16T15:33:07.212Z,101034.61
2018-03-16T15:35:36.232Z,101044.25
2018-03-16T15:38:04.507Z,101046.47
2018-03-16T15:40:32.793Z,101043.90
2018-03-16T15:43:02.152Z,101050.06
2018-03-16T15:45:30.930Z,101056.26
2018-03-16T15:47:59.733Z,101052.42
2018-03-16T15:50:28.309Z,101057.77
2018-03-16T15:52:56.607Z,101064.87
2018-03-16T15:55:25.650Z,101058.36
2018-03-16T15:57:54.049Z,101058.70
2018-03-16T16:00:22.482Z,101074.77
2018-03-16T16:02:51.518Z,101078.98
2018-03-16T16:05:19.784Z,101067.02
2018-03-16T16:07:48.073Z,101072.30
2018-03-16T16:10:16.860Z,101084.59
2018-03-16T16:12:45.140Z,101088.67
2018-03-16T16:15:13.454Z,101088.59
2018-03-16T16:17:41.716Z,101101.91
2018-03-16T16:20:10.063Z,101112.18
2018-03-16T16:22:39.203Z,101090.64
2018-03-16T16:25:08.335Z,101099.64
2018-03-16T16:27:36.956Z,101101.70
2018-03-16T16:30:05.230Z,101137.42
2018-03-16T16:32:33.520Z,101115.91
2018-03-16T16:35:01.878Z,101129.89
2018-03-16T16:37:30.136Z,101133.78
2018-03-16T16:39:58.419Z,101135.89
2018-03-16T16:42:27.148Z,101129.42
2018-03-16T16:44:55.396Z,101131.67
2018-03-16T16:47:23.657Z,101157.61
2018-03-16T16:49:52.295Z,101157.28
2018-03-16T16:52:21.180Z,101162.60
2018-03-16T16:54:49.522Z,101162.34
2018-03-16T16:57:17.770Z,101173.59
2018-03-16T16:59:46.822Z,101159.56
2018-03-16T17:02:15.291Z,101175.58
2018-03-16T17:04:43.832Z,101169.16
2018-03-16T17:07:14.297Z,101169.16
2018-03-16T17:09:44.040Z,101184.66
2018-03-16T17:12:12.322Z,101179.34
2018-03-16T17:14:43.397Z,101192.09
2018-03-16T17:17:12.786Z,101157.11
2018-03-16T17:19:41.103Z,101180.59
2018-03-16T17:22:09.609Z,101189.80
2018-03-16T17:24:38.309Z,101196.77
2018-03-16T17:27:08.305Z,101207.91
2018-03-16T17:29:36.608Z,101222.12
2018-03-16T17:32:04.933Z,101202.69
2018-03-16T17:34:34.099Z,101212.83
2018-03-16T17:37:02.395Z,101205.50
2018-03-16T17:39:31.747Z,101215.53
2018-03-16T17:42:00.685Z,101220.91
2018-03-16T17:44:29.059Z,101234.20
2018-03-16T17:46:57.358Z,101218.33
2018-03-16T17:49:27.315Z,101226.06
2018-03-16T17:51:55.624Z,101234.20
2018-03-16T17:54:23.912Z,101225.27
2018-03-16T17:56:52.905Z,101224.73
2018-03-16T17:59:21.261Z,101253.59
2018-03-16T18:01:50.136Z,101243.41
2018-03-16T18:04:19.344Z,101241.25
2018-03-16T18:06:47.728Z,101269.52
2018-03-16T18:09:16.393Z,101260.34
2018-03-16T18:11:44.660Z,101241.50
2018-03-16T18:14:13.308Z,101254.80
2018-03-16T18:16:41.608Z,101266.70
2018-03-16T18:19:10.653Z,101274.45
2018-03-16T18:21:38.962Z,101272.44
2018-03-16T18:24:10.632Z,101277.36
2018-03-16T18:26:39.781Z,101259.97
2018-03-16T18:29:08.072Z,101273.64
2018-03-16T18:31:36.445Z,101247.48
2018-03-16T18:34:05.653Z,101279.54
2018-03-16T18:36:33.914Z,101281.14
2018-03-16T18:39:02.314Z,101290.95
2018-03-16T18:41:30.757Z,101278.06
2018-03-16T18:43:59.109Z,101274.07
2018-03-16T18:46:29.829Z,101287.00
2018-03-16T18:48:58.941Z,101281.13
2018-03-16T18:51:27.972Z,101275.34
2018-03-16T18:53:56.260Z,101299.33
2018-03-16T18:56:25.174Z,101296.44
2018-03-16T18:58:53.528Z,101298.83
2018-03-16T19:01:21.821Z,101299.87
2018-03-16T19:03:50.149Z,101315.09
2018-03-16T19:06:19.220Z,101311.66
2018-03-16T19:08:48.515Z,101307.48
2018-03-16T19:11:16.806Z,101306.98
2018-03-16T19:13:46.358Z,101317.05
2018-03-16T19:16:16.350Z,101323.30
2018-03-16T19:18:45.448Z,101308.70
2018-03-16T19:21:14.009Z,101319.25
2018-03-16T19:23:43.986Z,101326.71
2018-03-16T19:26:12.419Z,101318.06
2018-03-16T19:28:40.647Z,101336.88
2018-03-16T19:31:09.086Z,101331.03
2018-03-16T19:33:38.164Z,101318.56
2018-03-16T19:36:07.329Z,101326.98
2018-03-16T19:38:36.122Z,101335.25
2018-03-16T19:41:04.489Z,101350.94
2018-03-16T19:43:32.768Z,101337.19
2018-03-16T19:46:01.096Z,101339.45
2018-03-16T19:48:30.233Z,101329.84
2018-03-16T19:50:59.132Z,101349.91
2018-03-16T19:53:27.465Z,101331.81
2018-03-16T19:55:56.504Z,101361.02
2018-03-16T19:58:24.782Z,101356.39
2018-03-16T20:00:54.452Z,101359.23
2018-03-16T20:03:23.505Z,101378.12
2018-03-16T20:05:52.499Z,101335.97
2018-03-16T20:08:21.677Z,101365.62
2018-03-16T20:10:50.000Z,101374.11
2018-03-16T20:13:18.550Z,101372.03
2018-03-16T20:15:46.840Z,101375.71
2018-03-16T20:18:15.125Z,101379.20
2018-03-16T20:20:43.608Z,101388.42
2018-03-16T20:23:12.088Z,101364.17
2018-03-16T20:25:40.424Z,101391.77
2018-03-16T20:28:10.443Z,101380.33
2018-03-16T20:30:38.720Z,101390.63
2018-03-16T20:33:07.029Z,101389.22
2018-03-16T20:35:35.392Z,101389.74
2018-03-16T20:38:04.005Z,101382.05
2018-03-16T20:40:32.277Z,101411.80
2018-03-16T20:43:00.569Z,101408.33
2018-03-16T20:45:29.538Z,101405.81
2018-03-16T20:47:57.804Z,101410.06
2018-03-16T20:50:26.821Z,101405.21
2018-03-16T20:52:55.128Z,101410.83
2018-03-16T20:55:24.201Z,101419.51
2018-03-16T20:57:52.604Z,101415.02
2018-03-16T21:00:20.965Z,101425.06
2018-03-16T21:02:49.231Z,101428.22
2018-03-16T21:05:17.809Z,101407.47
2018-03-16T21:07:46.188Z,101429.20
2018-03-16T21:10:14.502Z,101415.19
2018-03-16T21:12:43.488Z,101427.23
2018-03-16T21:15:11.784Z,101422.91
2018-03-16T21:17:40.844Z,101415.78
2018-03-16T21:20:09.515Z,101412.72
2018-03-16T21:22:39.211Z,101428.31
2018-03-16T21:25:07.501Z,101428.31
2018-03-16T21:27:36.052Z,101436.25
2018-03-16T21:30:05.109Z,101421.27
2018-03-16T21:32:34.297Z,101443.33
2018-03-16T21:35:02.614Z,101433.66
2018-03-16T21:37:32.097Z,101449.17
2018-03-16T21:40:00.863Z,101457.66
2018-03-16T21:42:29.173Z,101440.03
2018-03-16T21:44:57.493Z,101443.66
2018-03-16T21:47:25.773Z,101459.22
2018-03-16T21:49:54.178Z,101454.04
2018-03-16T21:52:22.457Z,101459.92
2018-03-16T21:54:50.720Z,101439.89
2018-03-16T21:57:19.037Z,101461.41
2018-03-16T21:59:47.348Z,101455.26
2018-03-16T22:02:15.634Z,101451.31
2018-03-16T22:04:44.536Z,101452.53
2018-03-16T22:07:12.799Z,101457.59
2018-03-16T22:09:41.410Z,101457.25
2018-03-16T22:12:09.713Z,101441.17
2018-03-16T22:14:38.989Z,101457.00
2018-03-16T22:17:08.662Z,101471.14
2018-03-16T22:19:38.210Z,101466.98
2018-03-16T22:22:06.484Z,101471.26
2018-03-16T22:24:34.755Z,101470.17
2018-03-16T22:27:03.142Z,101473.39
2018-03-16T22:29:31.428Z,101447.91
2018-03-16T22:31:59.763Z,101479.89
2018-03-16T22:34:28.148Z,101470.58
2018-03-16T22:36:57.181Z,101462.32
2018-03-16T22:39:25.905Z,101468.60
2018-03-16T22:41:55.453Z,101479.38
2018-03-16T22:44:24.684Z,101480.38
2018-03-16T22:46:52.970Z,101472.91
2018-03-16T22:49:21.271Z,101474.23
2018-03-16T22:51:49.557Z,101468.72
2018-03-16T22:54:20.629Z,101477.81
2018-03-16T22:56:48.911Z,101468.76
2018-03-16T22:59:17.190Z,101479.16
2018-03-16T23:01:45.504Z,101482.52
2018-03-16T23:04:14.904Z,101487.87
2018-03-16T23:06:43.672Z,101485.94
2018-03-16T23:09:12.005Z,101474.04
2018-03-16T23:11:41.053Z,101475.80
2018-03-16T23:14:09.328Z,101480.61
2018-03-16T23:16:37.624Z,101474.04
2018-03-16T23:19:05.893Z,101467.84
2018-03-16T23:21:34.777Z,101474.13
2018-03-16T23:24:03.121Z,101486.27
2018-03-16T23:26:31.620Z,101507.64
2018-03-16T23:29:00.430Z,101492.67
2018-03-16T23:31:28.736Z,101496.23
2018-03-16T23:33:57.931Z,101498.31
2018-03-16T23:36:26.207Z,101499.77
2018-03-16T23:38:54.497Z,101485.68
2018-03-16T23:41:22.840Z,101485.52
2018-03-16T23:43:51.884Z,101491.28
2018-03-16T23:46:20.924Z,101501.33
2018-03-16T23:48:49.228Z,101495.08
2018-03-16T23:51:17.922Z,101505.84
2018-03-16T23:53:46.189Z,101498.38
2018-03-16T23:56:14.556Z,101512.90
2018-03-16T23:58:42.829Z,101500.95
